createdAt,value
2022-09-12T00:00:26.405Z,100.00
2022-09-12T00:03:17.002Z,100.00
2022-09-12T00:05:48.063Z,100.00
2022-09-12T00:08:18.241Z,100.00
2022-09-12T00:10:49.653Z,100.00
2022-09-12T00:13:19.883Z,100.00
2022-09-12T00:15:49.793Z,100.00
2022-09-12T00:18:20.291Z,100.00
2022-09-12T00:20:50.891Z,100.00
2022-09-12T00:23:21.014Z,100.00
2022-09-12T00:25:52.591Z,100.00
2022-09-12T00:28:22.593Z,100.00
2022-09-12T00:30:52.794Z,100.00
2022-09-12T00:33:22.848Z,100.00
2022-09-12T00:35:54.313Z,100.00
2022-09-12T00:38:24.241Z,100.00
2022-09-12T00:40:55.891Z,100.00
2022-09-12T00:43:40.755Z,100.00
2022-09-12T00:46:20.981Z,100.00
2022-09-12T00:48:56.083Z,100.00
2022-09-12T00:51:26.481Z,100.00
2022-09-12T00:53:59.706Z,100.00
2022-09-12T00:56:31.633Z,100.00
2022-09-12T00:59:07.041Z,100.00
2022-09-12T01:01:38.083Z,100.00
2022-09-12T01:04:08.554Z,100.00
2022-09-12T01:06:41.647Z,100.00
2022-09-12T01:09:13.865Z,100.00
2022-09-12T01:11:47.421Z,100.00
2022-09-12T01:14:19.959Z,100.00
2022-09-12T01:16:52.304Z,100.00
2022-09-12T01:19:46.523Z,100.00
2022-09-12T01:22:32.859Z,100.00
2022-09-12T01:25:13.065Z,100.00
2022-09-12T01:28:24.427Z,100.00
2022-09-12T01:31:01.753Z,100.00
2022-09-12T01:33:40.634Z,100.00
2022-09-12T01:36:26.959Z,100.00
2022-09-12T01:39:02.200Z,100.00
2022-09-12T01:41:41.397Z,100.00
2022-09-12T01:44:20.407Z,100.00
2022-09-12T01:46:59.641Z,100.00
2022-09-12T01:49:34.949Z,100.00
2022-09-12T01:52:12.957Z,100.00
2022-09-12T01:54:48.579Z,100.00
2022-09-12T01:57:25.971Z,100.00
2022-09-12T02:00:01.617Z,100.00
2022-09-12T02:02:37.177Z,100.00
2022-09-12T02:05:12.127Z,100.00
2022-09-12T02:07:47.249Z,100.00
2022-09-12T02:10:20.947Z,100.00
2022-09-12T02:12:55.029Z,100.00
2022-09-12T02:15:30.988Z,100.00
2022-09-12T02:18:04.968Z,100.00
2022-09-12T02:20:54.366Z,100.00
2022-09-12T02:23:28.847Z,100.00
2022-09-12T02:26:05.267Z,100.00
2022-09-12T02:28:39.789Z,100.00
2022-09-12T02:31:16.158Z,100.00
2022-09-12T02:33:55.233Z,100.00
2022-09-12T02:36:36.240Z,100.00
2022-09-12T02:39:06.709Z,100.00
2022-09-12T02:41:37.159Z,100.00
2022-09-12T02:44:07.778Z,100.00
2022-09-12T02:46:43.700Z,100.00
2022-09-12T02:49:15.630Z,100.00
2022-09-12T02:51:46.638Z,100.00
2022-09-12T02:54:19.237Z,100.00
2022-09-12T02:56:49.608Z,100.00
2022-09-12T02:59:23.589Z,100.00
2022-09-12T03:02:09.354Z,100.00
2022-09-12T03:05:07.228Z,100.00
2022-09-12T03:07:57.938Z,100.00
2022-09-12T03:10:36.567Z,100.00
2022-09-12T03:13:19.280Z,100.00
2022-09-12T03:16:01.898Z,100.00
2022-09-12T03:18:53.266Z,100.00
2022-09-12T03:21:33.811Z,100.00
2022-09-12T03:24:15.653Z,100.00
2022-09-12T03:26:49.976Z,100.00
2022-09-12T03:29:21.016Z,100.00
2022-09-12T03:31:53.573Z,100.00
2022-09-12T03:34:25.473Z,100.00
2022-09-12T03:36:57.604Z,100.00
2022-09-12T03:39:28.296Z,100.00
2022-09-12T03:41:58.824Z,100.00
2022-09-12T03:44:29.467Z,100.00
2022-09-12T03:46:59.585Z,100.00
2022-09-12T03:49:29.515Z,100.00
2022-09-12T03:52:01.133Z,100.00
2022-09-12T03:54:31.036Z,100.00
2022-09-12T03:57:01.255Z,100.00
2022-09-12T03:59:31.333Z,100.00
2022-09-12T04:02:01.324Z,100.00
2022-09-12T04:04:31.551Z,100.00
2022-09-12T04:07:03.152Z,100.00
2022-09-12T04:09:33.316Z,100.00
2022-09-12T04:12:03.773Z,100.00
2022-09-12T04:14:34.146Z,100.00
2022-09-12T04:17:04.505Z,100.00
2022-09-12T04:19:34.395Z,100.00
2022-09-12T04:22:06.206Z,100.00
2022-09-12T04:24:35.854Z,100.00
2022-09-12T04:27:07.804Z,100.00
2022-09-12T04:29:38.076Z,100.00
2022-09-12T04:32:08.503Z,100.00
2022-09-12T04:34:39.524Z,100.00
2022-09-12T04:37:12.024Z,100.00
2022-09-12T04:39:42.094Z,100.00
2022-09-12T04:42:12.854Z,100.00
2022-09-12T04:44:42.844Z,100.00
2022-09-12T04:47:13.157Z,100.00
2022-09-12T04:49:43.435Z,100.00
2022-09-12T04:52:14.834Z,100.00
2022-09-12T04:54:45.095Z,100.00
2022-09-12T04:57:15.034Z,100.00
2022-09-12T04:59:45.124Z,100.00
2022-09-12T05:02:15.312Z,100.00
2022-09-12T05:04:47.215Z,100.00
2022-09-12T05:07:19.531Z,100.00
2022-09-12T05:09:49.976Z,100.00
2022-09-12T05:12:20.156Z,100.00
2022-09-12T05:14:50.171Z,100.00
2022-09-12T05:17:20.316Z,100.00
2022-09-12T05:19:51.186Z,100.00
2022-09-12T05:22:23.154Z,100.00
2022-09-12T05:24:53.542Z,100.00
2022-09-12T05:27:23.603Z,100.00
2022-09-12T05:29:53.995Z,100.00
2022-09-12T05:32:24.193Z,100.00
2022-09-12T05:34:54.203Z,100.00
2022-09-12T05:37:25.584Z,100.00
2022-09-12T05:39:56.029Z,100.00
2022-09-12T05:42:26.133Z,100.00
2022-09-12T05:44:56.043Z,100.00
2022-09-12T05:47:26.275Z,100.00
2022-09-12T05:49:56.273Z,100.00
2022-09-12T05:52:27.585Z,100.00
2022-09-12T05:54:57.936Z,100.00
2022-09-12T05:57:27.986Z,100.00
2022-09-12T05:59:59.437Z,100.00
2022-09-12T06:02:29.648Z,100.00
2022-09-12T06:04:59.878Z,100.00
2022-09-12T06:07:32.335Z,100.00
2022-09-12T06:10:02.575Z,100.00
2022-09-12T06:12:32.596Z,100.00
2022-09-12T06:15:02.878Z,100.00
2022-09-12T06:17:32.816Z,97.62
2022-09-12T06:20:04.354Z,96.67
2022-09-12T06:22:36.053Z,96.58
2022-09-12T06:25:06.454Z,94.99
2022-09-12T06:27:36.563Z,95.82
2022-09-12T06:30:07.434Z,93.44
2022-09-12T06:32:37.595Z,91.26
2022-09-12T06:35:08.153Z,89.70
2022-09-12T06:37:40.996Z,87.35
2022-09-12T06:40:12.676Z,86.25
2022-09-12T06:42:42.903Z,85.08
2022-09-12T06:45:13.254Z,81.84
2022-09-12T06:47:43.306Z,81.12
2022-09-12T06:50:13.675Z,79.11
2022-09-12T06:52:45.146Z,77.98
2022-09-12T06:55:19.844Z,77.04
2022-09-12T06:57:50.913Z,76.78
2022-09-12T07:00:22.416Z,75.17
2022-09-12T07:02:57.045Z,73.82
2022-09-12T07:05:28.423Z,71.55
2022-09-12T07:07:59.864Z,70.99
2022-09-12T07:10:31.341Z,69.94
2022-09-12T07:13:01.305Z,70.32
2022-09-12T07:15:31.745Z,68.91
2022-09-12T07:18:01.593Z,69.50
2022-09-12T07:20:33.455Z,67.89
2022-09-12T07:23:05.453Z,67.81
2022-09-12T07:25:36.333Z,66.76
2022-09-12T07:28:06.556Z,67.17
2022-09-12T07:30:40.322Z,67.82
2022-09-12T07:33:10.570Z,67.57
2022-09-12T07:35:41.013Z,66.76
2022-09-12T07:38:12.471Z,66.39
2022-09-12T07:40:42.703Z,67.09
2022-09-12T07:43:12.793Z,66.41
2022-09-12T07:45:43.667Z,65.85
2022-09-12T07:48:14.223Z,63.81
2022-09-12T07:50:45.253Z,62.74
2022-09-12T07:53:16.715Z,60.52
2022-09-12T07:55:54.723Z,60.22
2022-09-12T07:58:25.527Z,58.66
2022-09-12T08:00:55.811Z,61.76
2022-09-12T08:03:25.943Z,65.14
2022-09-12T08:05:56.116Z,67.19
2022-09-12T08:08:27.714Z,65.30
2022-09-12T08:11:00.173Z,64.68
2022-09-12T08:13:30.761Z,60.50
2022-09-12T08:16:02.471Z,61.06
2022-09-12T08:18:34.235Z,61.38
2022-09-12T08:21:06.388Z,62.97
2022-09-12T08:23:37.965Z,63.13
2022-09-12T08:26:08.817Z,59.38
2022-09-12T08:28:41.056Z,57.73
2022-09-12T08:31:15.151Z,58.42
2022-09-12T08:33:46.005Z,56.54
2022-09-12T08:36:18.323Z,56.00
2022-09-12T08:38:51.636Z,56.65
2022-09-12T08:41:30.656Z,53.21
2022-09-12T08:44:24.013Z,52.62
2022-09-12T08:47:13.002Z,51.91
2022-09-12T08:49:52.675Z,49.83
2022-09-12T08:52:29.174Z,51.88
2022-09-12T08:55:01.854Z,53.05
2022-09-12T08:57:32.224Z,53.36
2022-09-12T09:00:06.565Z,54.12
2022-09-12T09:03:12.658Z,54.21
2022-09-12T09:05:52.363Z,55.55
2022-09-12T09:08:38.755Z,57.69
2022-09-12T09:11:31.163Z,59.12
2022-09-12T09:14:31.093Z,55.20
2022-09-12T09:17:03.555Z,56.24
2022-09-12T09:19:39.074Z,57.66
2022-09-12T09:22:14.759Z,55.43
2022-09-12T09:24:50.223Z,59.29
2022-09-12T09:27:47.158Z,60.69
2022-09-12T09:30:19.835Z,61.57
2022-09-12T09:32:53.945Z,56.04
2022-09-12T09:35:36.526Z,51.83
2022-09-12T09:38:20.144Z,55.98
2022-09-12T09:41:00.153Z,59.58
2022-09-12T09:43:32.729Z,60.45
2022-09-12T09:46:03.256Z,62.05
2022-09-12T09:48:35.330Z,63.08
2022-09-12T09:51:09.602Z,56.55
2022-09-12T09:53:46.963Z,54.22
2022-09-12T09:56:28.529Z,51.83
2022-09-12T09:59:10.033Z,53.53
2022-09-12T10:01:45.058Z,52.29
2022-09-12T10:04:22.074Z,54.86
2022-09-12T10:06:54.865Z,53.89
2022-09-12T10:09:27.473Z,57.57
2022-09-12T10:11:58.945Z,56.72
2022-09-12T10:14:40.736Z,55.06
2022-09-12T10:17:34.693Z,53.29
2022-09-12T10:20:22.475Z,53.67
2022-09-12T10:22:52.987Z,53.62
2022-09-12T10:25:26.505Z,56.29
2022-09-12T10:28:00.773Z,57.87
2022-09-12T10:30:32.273Z,58.82
2022-09-12T10:33:13.895Z,56.56
2022-09-12T10:35:50.467Z,55.02
2022-09-12T10:38:25.705Z,54.41
2022-09-12T10:41:03.845Z,54.90
2022-09-12T10:43:38.753Z,56.41
2022-09-12T10:46:31.066Z,58.24
2022-09-12T10:49:23.303Z,58.35
2022-09-12T10:51:54.679Z,57.74
2022-09-12T10:54:27.668Z,57.47
2022-09-12T10:57:21.946Z,57.00
2022-09-12T11:00:18.213Z,57.31
2022-09-12T11:03:17.685Z,58.78
2022-09-12T11:05:56.296Z,57.72
2022-09-12T11:08:42.665Z,55.98
2022-09-12T11:11:24.644Z,55.95
2022-09-12T11:14:11.224Z,57.31
2022-09-12T11:16:50.804Z,58.12
2022-09-12T11:19:48.201Z,57.04
2022-09-12T11:22:38.097Z,58.40
2022-09-12T11:25:33.316Z,57.92
2022-09-12T11:28:23.215Z,57.55
2022-09-12T11:31:15.240Z,56.51
2022-09-12T11:33:47.934Z,56.38
2022-09-12T11:36:43.055Z,56.59
2022-09-12T11:39:16.893Z,57.63
2022-09-12T11:41:52.813Z,57.01
2022-09-12T11:44:28.923Z,56.07
2022-09-12T11:46:59.803Z,56.48
2022-09-12T11:49:38.126Z,56.06
2022-09-12T11:52:17.699Z,57.88
2022-09-12T11:54:53.888Z,56.86
2022-09-12T11:57:32.415Z,56.63
2022-09-12T12:00:07.354Z,54.75
2022-09-12T12:02:43.965Z,55.17
2022-09-12T12:05:22.055Z,55.94
2022-09-12T12:07:58.895Z,55.45
2022-09-12T12:10:37.179Z,56.07
2022-09-12T12:13:14.334Z,56.94
2022-09-12T12:15:49.760Z,56.94
2022-09-12T12:18:22.032Z,58.17
2022-09-12T12:20:53.333Z,58.42
2022-09-12T12:23:31.395Z,57.03
2022-09-12T12:26:04.133Z,57.23
2022-09-12T12:29:01.297Z,56.38
2022-09-12T12:31:31.580Z,55.98
2022-09-12T12:34:24.414Z,56.10
2022-09-12T12:36:54.634Z,55.54
2022-09-12T12:40:01.497Z,54.00
2022-09-12T12:43:23.003Z,54.73
2022-09-12T12:46:16.175Z,54.71
2022-09-12T12:48:55.465Z,54.54
2022-09-12T12:52:01.727Z,54.51
2022-09-12T12:54:57.987Z,53.72
2022-09-12T12:57:48.818Z,53.62
2022-09-12T13:00:32.524Z,54.06
2022-09-12T13:03:12.156Z,53.85
2022-09-12T13:05:45.634Z,54.89
2022-09-12T13:08:31.982Z,55.30
2022-09-12T13:11:07.676Z,54.54
2022-09-12T13:13:43.374Z,55.68
2022-09-12T13:16:14.038Z,55.84
2022-09-12T13:18:48.058Z,54.96
2022-09-12T13:21:20.255Z,55.00
2022-09-12T13:24:03.023Z,54.56
2022-09-12T13:26:41.845Z,53.73
2022-09-12T13:29:14.226Z,53.15
2022-09-12T13:31:47.533Z,53.38
2022-09-12T13:34:22.634Z,53.95
2022-09-12T13:37:26.485Z,54.64
2022-09-12T13:40:07.729Z,53.97
2022-09-12T13:42:42.986Z,54.20
2022-09-12T13:45:21.385Z,54.29
2022-09-12T13:47:58.470Z,54.45
2022-09-12T13:50:33.963Z,53.87
2022-09-12T13:53:07.385Z,52.41
2022-09-12T13:55:40.522Z,49.82
2022-09-12T13:58:21.144Z,52.05
2022-09-12T14:01:04.196Z,54.57
2022-09-12T14:03:58.966Z,55.64
2022-09-12T14:06:36.976Z,56.63
2022-09-12T14:09:16.477Z,56.58
2022-09-12T14:11:46.534Z,56.78
2022-09-12T14:14:28.286Z,57.56
2022-09-12T14:16:59.263Z,57.19
2022-09-12T14:19:30.274Z,58.61
2022-09-12T14:22:02.408Z,58.21
2022-09-12T14:24:33.585Z,57.58
2022-09-12T14:27:03.645Z,58.34
2022-09-12T14:29:35.114Z,57.69
2022-09-12T14:32:07.237Z,58.57
2022-09-12T14:34:39.097Z,58.30
2022-09-12T14:37:10.935Z,57.27
2022-09-12T14:39:44.445Z,57.25
2022-09-12T14:42:18.247Z,58.08
2022-09-12T14:44:58.791Z,58.45
2022-09-12T14:47:40.455Z,59.47
2022-09-12T14:50:18.653Z,59.37
2022-09-12T14:53:06.468Z,59.54
2022-09-12T14:55:44.901Z,59.82
2022-09-12T14:58:26.432Z,60.14
2022-09-12T15:01:04.255Z,60.11
2022-09-12T15:03:37.113Z,60.85
2022-09-12T15:06:22.263Z,60.33
2022-09-12T15:08:55.843Z,61.29
2022-09-12T15:11:26.085Z,61.79
2022-09-12T15:13:56.905Z,62.27
2022-09-12T15:16:27.263Z,61.66
2022-09-12T15:18:57.305Z,60.90
2022-09-12T15:21:27.451Z,61.58
2022-09-12T15:23:59.124Z,62.44
2022-09-12T15:26:31.914Z,61.26
2022-09-12T15:29:02.175Z,61.55
2022-09-12T15:31:34.121Z,61.39
2022-09-12T15:34:05.073Z,61.43
2022-09-12T15:36:35.142Z,62.87
2022-09-12T15:39:07.437Z,62.54
2022-09-12T15:41:39.056Z,62.39
2022-09-12T15:44:12.713Z,63.84
2022-09-12T15:46:43.232Z,64.00
2022-09-12T15:49:13.606Z,65.73
2022-09-12T15:51:44.695Z,66.27
2022-09-12T15:54:16.663Z,67.37
2022-09-12T15:56:47.893Z,68.21
2022-09-12T15:59:21.213Z,68.73
2022-09-12T16:01:51.218Z,68.63
2022-09-12T16:04:25.605Z,69.07
2022-09-12T16:06:58.381Z,69.20
2022-09-12T16:09:30.728Z,70.27
2022-09-12T16:12:01.686Z,70.93
2022-09-12T16:14:31.646Z,72.33
2022-09-12T16:17:01.986Z,72.57
2022-09-12T16:19:31.967Z,73.39
2022-09-12T16:22:02.205Z,74.89
2022-09-12T16:24:35.041Z,74.70
2022-09-12T16:27:05.429Z,75.85
2022-09-12T16:29:36.395Z,76.19
2022-09-12T16:32:06.525Z,76.66
2022-09-12T16:34:36.712Z,77.17
2022-09-12T16:37:07.087Z,78.12
2022-09-12T16:39:38.863Z,80.49
2022-09-12T16:42:09.365Z,81.47
2022-09-12T16:44:39.654Z,83.04
2022-09-12T16:47:09.667Z,83.35
2022-09-12T16:49:40.262Z,84.87
2022-09-12T16:52:11.694Z,87.30
2022-09-12T16:54:43.066Z,88.90
2022-09-12T16:57:13.216Z,89.97
2022-09-12T16:59:43.753Z,92.51
2022-09-12T17:02:14.956Z,93.89
2022-09-12T17:04:45.284Z,94.07
2022-09-12T17:07:15.366Z,97.68
2022-09-12T17:09:48.048Z,99.98
2022-09-12T17:12:18.413Z,100.00
2022-09-12T17:14:48.292Z,100.00
2022-09-12T17:17:18.144Z,100.00
2022-09-12T17:19:48.432Z,100.00
2022-09-12T17:22:18.239Z,100.00
2022-09-12T17:24:49.693Z,100.00
2022-09-12T17:27:19.857Z,100.00
2022-09-12T17:29:49.774Z,100.00
2022-09-12T17:32:19.697Z,100.00
2022-09-12T17:34:50.997Z,100.00
2022-09-12T17:37:22.031Z,100.00
2022-09-12T17:39:53.772Z,100.00
2022-09-12T17:42:24.643Z,100.00
2022-09-12T17:44:55.965Z,100.00
2022-09-12T17:47:25.914Z,100.00
2022-09-12T17:50:14.550Z,100.00
2022-09-12T17:52:46.572Z,100.00
2022-09-12T17:55:18.225Z,100.00
2022-09-12T17:57:48.836Z,100.00
2022-09-12T18:00:39.993Z,100.00
2022-09-12T18:03:09.065Z,100.00
2022-09-12T18:05:46.325Z,100.00
2022-09-12T18:08:16.433Z,100.00
2022-09-12T18:10:48.675Z,100.00
2022-09-12T18:13:18.928Z,100.00
2022-09-12T18:15:49.834Z,100.00
2022-09-12T18:18:21.255Z,100.00
2022-09-12T18:20:55.001Z,100.00
2022-09-12T18:23:25.575Z,100.00
2022-09-12T18:26:05.271Z,100.00
2022-09-12T18:28:37.153Z,100.00
2022-09-12T18:31:14.654Z,100.00
2022-09-12T18:33:47.428Z,100.00
2022-09-12T18:36:19.072Z,100.00
2022-09-12T18:38:51.948Z,100.00
2022-09-12T18:41:26.513Z,100.00
2022-09-12T18:43:59.605Z,100.00
2022-09-12T18:46:33.055Z,100.00
2022-09-12T18:49:03.761Z,100.00
2022-09-12T18:51:36.343Z,100.00
2022-09-12T18:54:09.080Z,100.00
2022-09-12T18:56:44.391Z,100.00
2022-09-12T18:59:15.607Z,100.00
2022-09-12T19:01:46.213Z,100.00
2022-09-12T19:04:16.907Z,100.00
2022-09-12T19:06:49.016Z,100.00
2022-09-12T19:09:20.896Z,100.00
2022-09-12T19:11:53.004Z,100.00
2022-09-12T19:14:25.236Z,100.00
2022-09-12T19:16:56.258Z,100.00
2022-09-12T19:19:26.898Z,100.00
2022-09-12T19:21:58.389Z,100.00
2022-09-12T19:24:29.397Z,100.00
2022-09-12T19:27:06.074Z,100.00
2022-09-12T19:29:36.613Z,100.00
2022-09-12T19:32:09.994Z,100.00
2022-09-12T19:34:44.354Z,100.00
2022-09-12T19:37:19.004Z,100.00
2022-09-12T19:39:50.372Z,100.00
2022-09-12T19:42:23.823Z,100.00
2022-09-12T19:44:56.228Z,100.00
2022-09-12T19:47:28.292Z,100.00
2022-09-12T19:50:01.783Z,100.00
2022-09-12T19:52:35.174Z,100.00
2022-09-12T19:55:05.355Z,100.00
2022-09-12T19:57:37.663Z,100.00
2022-09-12T20:00:09.004Z,100.00
2022-09-12T20:02:39.901Z,100.00
2022-09-12T20:05:10.463Z,100.00
2022-09-12T20:07:40.676Z,100.00
2022-09-12T20:10:11.508Z,100.00
2022-09-12T20:12:43.454Z,100.00
2022-09-12T20:15:16.265Z,100.00
2022-09-12T20:17:48.276Z,100.00
2022-09-12T20:20:19.074Z,100.00
2022-09-12T20:22:52.865Z,100.00
2022-09-12T20:25:23.803Z,100.00
2022-09-12T20:27:59.969Z,100.00
2022-09-12T20:30:30.285Z,100.00
2022-09-12T20:33:00.638Z,100.00
2022-09-12T20:35:30.898Z,100.00
2022-09-12T20:38:01.165Z,100.00
2022-09-12T20:40:31.365Z,100.00
2022-09-12T20:43:03.161Z,100.00
2022-09-12T20:45:33.725Z,100.00
2022-09-12T20:48:05.106Z,100.00
2022-09-12T20:50:35.630Z,100.00
2022-09-12T20:53:06.210Z,100.00
2022-09-12T20:55:36.992Z,100.00
2022-09-12T20:58:08.980Z,100.00
2022-09-12T21:00:40.874Z,100.00
2022-09-12T21:03:10.835Z,100.00
2022-09-12T21:05:41.374Z,100.00
2022-09-12T21:08:11.693Z,100.00
2022-09-12T21:10:43.176Z,100.00
2022-09-12T21:13:15.230Z,100.00
2022-09-12T21:15:45.590Z,100.00
2022-09-12T21:18:15.632Z,100.00
2022-09-12T21:20:52.685Z,100.00
2022-09-12T21:23:23.304Z,100.00
2022-09-12T21:25:54.143Z,100.00
2022-09-12T21:28:25.554Z,100.00
2022-09-12T21:30:56.225Z,100.00
2022-09-12T21:33:26.453Z,100.00
2022-09-12T21:35:58.191Z,100.00
2022-09-12T21:38:27.753Z,100.00
2022-09-12T21:41:06.045Z,100.00
2022-09-12T21:43:37.955Z,100.00
2022-09-12T21:46:10.368Z,100.00
2022-09-12T21:48:40.524Z,100.00
2022-09-12T21:51:10.745Z,100.00
2022-09-12T21:53:40.784Z,100.00
2022-09-12T21:56:11.546Z,100.00
2022-09-12T21:58:42.959Z,100.00
2022-09-12T22:01:14.512Z,100.00
2022-09-12T22:03:45.193Z,100.00
2022-09-12T22:06:17.760Z,100.00
2022-09-12T22:08:50.735Z,100.00
2022-09-12T22:11:22.374Z,100.00
2022-09-12T22:13:53.855Z,100.00
2022-09-12T22:16:24.160Z,100.00
2022-09-12T22:18:54.293Z,100.00
2022-09-12T22:21:25.470Z,100.00
2022-09-12T22:24:12.940Z,100.00
2022-09-12T22:26:43.767Z,100.00
2022-09-12T22:29:15.685Z,100.00
2022-09-12T22:31:45.829Z,100.00
2022-09-12T22:34:16.059Z,100.00
2022-09-12T22:36:46.720Z,100.00
2022-09-12T22:39:17.140Z,100.00
2022-09-12T22:41:47.142Z,100.00
2022-09-12T22:44:19.080Z,100.00
2022-09-12T22:46:49.125Z,100.00
2022-09-12T22:49:19.363Z,100.00
2022-09-12T22:51:49.469Z,100.00
2022-09-12T22:54:19.809Z,100.00
2022-09-12T22:56:49.932Z,100.00
2022-09-12T22:59:21.741Z,100.00
2022-09-12T23:01:51.311Z,100.00
2022-09-12T23:04:21.490Z,100.00
2022-09-12T23:06:51.461Z,100.00
2022-09-12T23:09:21.751Z,100.00
2022-09-12T23:11:52.409Z,100.00
2022-09-12T23:14:24.092Z,100.00
2022-09-12T23:16:53.679Z,100.00
2022-09-12T23:19:23.702Z,100.00
2022-09-12T23:21:53.631Z,100.00
2022-09-12T23:24:23.809Z,100.00
2022-09-12T23:26:53.793Z,100.00
2022-09-12T23:29:25.250Z,100.00
2022-09-12T23:31:55.752Z,100.00
2022-09-12T23:34:25.640Z,100.00
2022-09-12T23:36:56.840Z,100.00
2022-09-12T23:39:27.049Z,100.00
2022-09-12T23:41:57.229Z,100.00
2022-09-12T23:44:28.671Z,100.00
2022-09-12T23:46:58.909Z,100.00
2022-09-12T23:49:28.821Z,100.00
2022-09-12T23:51:58.641Z,100.00
2022-09-12T23:54:28.769Z,100.00
2022-09-12T23:56:58.849Z,100.00
2022-09-12T23:59:31.269Z,100.00
